Time;durP1;ratioP1;P1;durP2;ratioP2;P2;SDS_P1;SDS_P2;PMS_P1;PMS_P2;Temp;Humidity;BMP_temperature;BMP_pressure;BME280_temperature;BME280_humidity;BME280_pressure;Samples;Min_cycle;Max_cycle;Signal;HPM_P1;HPM_P2
2022/12/24 00:01:55;;;;;;;38.20;23.73;;;;;;;7.84;70.21;94496.41;5131257;27;20234;-46
2022/12/24 00:04:21;;;;;;;31.87;21.60;;;;;;;7.80;70.14;94488.22;5131791;27;20188;-47
2022/12/24 00:06:48;;;;;;;37.80;24.40;;;;;;;7.83;70.36;94491.47;5131412;27;20196;-46
2022/12/24 00:09:15;;;;;;;34.40;24.13;;;;;;;7.82;70.33;94495.75;5131192;27;20189;-45
2022/12/24 00:11:42;;;;;;;37.00;22.80;;;;;;;7.77;70.38;94485.13;5131292;27;20180;-46
2022/12/24 00:14:08;;;;;;;34.57;23.57;;;;;;;7.80;70.37;94497.59;5131236;27;20203;-46
2022/12/24 00:16:35;;;;;;;35.40;23.20;;;;;;;7.79;70.31;94498.53;5130988;27;20193;-46
2022/12/24 00:19:03;;;;;;;37.13;24.27;;;;;;;7.78;70.43;94494.41;5131163;27;20187;-46
2022/12/24 00:21:30;;;;;;;37.60;21.93;;;;;;;7.76;70.30;94504.69;5131141;27;20562;-46
2022/12/24 00:23:57;;;;;;;33.00;23.13;;;;;;;7.76;70.38;94506.41;5130408;27;20208;-47
2022/12/24 00:26:24;;;;;;;34.23;23.93;;;;;;;7.74;70.22;94495.56;5131635;27;20196;-46
2022/12/24 00:28:51;;;;;;;31.53;22.00;;;;;;;7.73;70.09;94492.22;5131041;27;20265;-46
2022/12/24 00:31:18;;;;;;;32.13;21.53;;;;;;;7.71;70.25;94494.06;5130835;27;20196;-46
2022/12/24 00:33:46;;;;;;;36.30;23.90;;;;;;;7.70;70.33;94487.38;5130638;27;20646;-46
2022/12/24 00:36:15;;;;;;;33.40;22.27;;;;;;;7.69;70.25;94490.88;5131071;27;20184;-47
2022/12/24 00:38:41;;;;;;;34.47;21.83;;;;;;;7.56;70.24;94476.72;5130388;27;20609;-46
2022/12/24 00:41:23;;;;;;;35.87;21.87;;;;;;;7.67;70.13;94502.09;5130870;27;20188;-46
2022/12/24 00:43:50;;;;;;;33.83;22.10;;;;;;;7.66;70.16;94493.66;5130479;27;20312;-47
2022/12/24 00:46:17;;;;;;;33.70;22.33;;;;;;;7.65;70.33;94504.75;5130516;27;20236;-47
2022/12/24 00:48:44;;;;;;;33.50;22.97;;;;;;;7.61;70.29;94492.41;5130883;27;20196;-47
2022/12/24 00:51:10;;;;;;;33.40;22.23;;;;;;;7.56;70.38;94474.97;5131240;27;20239;-48
2022/12/24 00:53:39;;;;;;;32.27;21.27;;;;;;;7.61;70.27;94494.97;5130314;27;20173;-48
2022/12/24 00:56:07;;;;;;;33.17;21.37;;;;;;;7.59;70.37;94499.34;5130710;27;20192;-48
2022/12/24 00:58:33;;;;;;;31.10;20.57;;;;;;;7.62;70.27;94501.66;5130572;27;20181;-47
2022/12/24 01:01:00;;;;;;;30.43;21.50;;;;;;;7.61;70.23;94503.41;5130566;27;20248;-49
2022/12/24 01:03:34;;;;;;;32.10;21.47;;;;;;;7.60;70.26;94504.34;5111988;27;20224;-49
2022/12/24 01:06:00;;;;;;;36.37;22.10;;;;;;;7.41;70.18;94474.47;5110064;28;20289;-47
2022/12/24 01:08:26;;;;;;;34.57;21.40;;;;;;;7.59;70.30;94495.06;5121774;27;20263;-49
2022/12/24 01:10:55;;;;;;;31.07;21.10;;;;;;;7.44;70.27;94479.31;5130400;27;20188;-47
2022/12/24 01:13:21;;;;;;;33.40;20.60;;;;;;;7.59;70.40;94510.34;5130636;27;20181;-48
2022/12/24 01:15:48;;;;;;;30.43;20.43;;;;;;;7.58;70.22;94508.72;5130149;27;20187;-47
2022/12/24 01:18:15;;;;;;;36.53;21.60;;;;;;;7.58;70.29;94516.34;5130337;27;20188;-47
2022/12/24 01:20:42;;;;;;;30.40;20.23;;;;;;;7.58;70.31;94510.47;5130102;27;20605;-46
2022/12/24 01:23:09;;;;;;;35.10;21.27;;;;;;;7.58;70.30;94500.28;5129872;27;20226;-46
2022/12/24 01:25:37;;;;;;;30.73;20.30;;;;;;;7.54;70.19;94490.34;5130401;27;20235;-48
2022/12/24 01:28:06;;;;;;;34.93;20.20;;;;;;;7.54;70.21;94479.38;5129743;27;20375;-47
2022/12/24 01:30:32;;;;;;;32.27;19.03;;;;;;;7.56;70.06;94486.91;5130408;27;20207;-47
2022/12/24 01:32:59;;;;;;;35.00;21.93;;;;;;;7.56;70.10;94486.91;5130357;27;20198;-46
2022/12/24 01:35:26;;;;;;;31.87;19.63;;;;;;;7.54;70.10;94485.25;5129801;27;20628;-46
2022/12/24 01:37:53;;;;;;;30.43;20.33;;;;;;;7.54;70.20;94495.44;5129820;27;20176;-46
2022/12/24 01:43:24;;;;;;;29.97;19.33;;;;;;;7.52;70.23;94496.50;5064327;28;20629;-46
2022/12/24 01:45:52;;;;;;;34.73;20.10;;;;;;;7.51;70.16;94502.50;5063610;28;20245;-46
2022/12/24 01:48:35;;;;;;;27.93;20.70;;;;;;;7.50;70.10;94494.06;5063984;28;20904;-47
2022/12/24 01:51:07;;;;;;;31.67;20.73;;;;;;;7.48;70.06;94490.84;5063574;28;20216;-46
2022/12/24 01:53:37;;;;;;;31.17;20.50;;;;;;;7.48;70.26;94490.84;5063221;28;20189;-47
2022/12/24 01:56:06;;;;;;;33.73;20.73;;;;;;;7.45;70.09;94488.56;5063985;28;20186;-46
2022/12/24 01:58:36;;;;;;;31.10;20.67;;;;;;;7.46;70.31;94497.78;5063759;28;20186;-45
2022/12/24 02:01:03;;;;;;;34.20;20.93;;;;;;;7.45;70.23;94493.63;5063461;28;20186;-46
2022/12/24 02:03:30;;;;;;;29.73;19.80;;;;;;;7.45;70.29;94480.91;5063470;28;20225;-46
2022/12/24 02:05:59;;;;;;;34.67;21.20;;;;;;;7.44;70.13;94478.50;5063352;28;20255;-46
2022/12/24 02:08:38;;;;;;;29.50;20.20;;;;;;;7.43;70.20;94477.72;5044002;28;20191;-49
2022/12/24 02:11:10;;;;;;;36.13;21.13;;;;;;;7.34;70.33;94473.38;5043646;28;20286;-47
2022/12/24 02:13:39;;;;;;;28.90;19.83;;;;;;;7.40;70.24;94490.66;5049065;28;21236;-47
2022/12/24 02:16:17;;;;;;;31.70;20.10;;;;;;;7.20;70.25;94453.31;5063010;28;20182;-47
2022/12/24 02:18:57;;;;;;;28.50;18.23;;;;;;;7.37;70.31;94479.94;5106794;28;20200;-47
2022/12/24 02:21:46;;;;;;;29.97;18.93;;;;;;;7.39;70.16;94485.72;5112993;28;20187;-47
2022/12/24 02:24:50;;;;;;;30.50;19.17;;;;;;;7.37;70.21;94487.56;5127113;28;20348;-48
2022/12/24 02:27:34;;;;;;;27.40;18.70;;;;;;;7.35;70.23;94487.69;5127538;28;20237;-47
2022/12/24 02:30:10;;;;;;;32.07;20.20;;;;;;;7.32;69.96;94493.00;5129468;28;20191;-47
2022/12/24 02:32:56;;;;;;;29.13;19.87;;;;;;;7.27;70.29;94487.50;5128362;28;20196;-46
2022/12/24 02:35:32;;;;;;;29.23;19.13;;;;;;;7.18;70.09;94468.69;5127005;28;20608;-46
2022/12/24 02:38:04;;;;;;;30.17;18.70;;;;;;;7.30;70.32;94487.25;5107072;28;20197;-46
2022/12/24 02:40:37;;;;;;;30.77;19.00;;;;;;;7.28;70.29;94484.81;5112902;27;20684;-47
2022/12/24 02:43:10;;;;;;;32.37;19.90;;;;;;;7.28;70.19;94489.09;5129762;28;20204;-46
2022/12/24 02:45:42;;;;;;;36.23;20.30;;;;;;;7.17;70.29;94458.66;5129354;27;20203;-47
2022/12/24 02:48:10;;;;;;;26.77;18.53;;;;;;;7.26;70.15;94471.44;5132447;27;20660;-47
2022/12/24 02:50:37;;;;;;;31.27;19.03;;;;;;;7.25;70.20;94472.38;5132474;27;20241;-47
2022/12/24 02:53:05;;;;;;;28.60;18.90;;;;;;;7.25;70.27;94471.53;5134546;27;20245;-46
2022/12/24 02:55:40;;;;;;;29.37;18.97;;;;;;;7.23;70.11;94458.16;5133091;27;20204;-48
2022/12/24 02:58:24;;;;;;;29.07;17.03;;;;;;;7.08;70.13;94431.41;5133019;27;20216;-46
2022/12/24 03:01:14;;;;;;;28.20;18.57;;;;;;;7.20;70.20;94456.66;5133235;27;20192;-44
2022/12/24 03:03:55;;;;;;;30.97;18.87;;;;;;;7.22;70.24;94466.72;5132762;27;20216;-46
2022/12/24 03:06:32;;;;;;;29.13;18.40;;;;;;;7.17;70.00;94459.47;5132954;27;20191;-46
2022/12/24 03:09:03;;;;;;;29.60;18.37;;;;;;;7.19;70.19;94464.41;5132382;27;20184;-48
2022/12/24 03:11:31;;;;;;;24.97;17.77;;;;;;;7.19;70.15;94470.31;5133432;27;20190;-44
2022/12/24 03:14:00;;;;;;;29.23;17.63;;;;;;;7.19;70.18;94466.94;5132854;27;20188;-43
2022/12/24 03:16:28;;;;;;;24.40;17.07;;;;;;;7.13;70.19;94455.53;5132980;27;20188;-46
2022/12/24 03:18:58;;;;;;;23.93;16.87;;;;;;;7.16;70.07;94462.91;5132644;27;20222;-45
2022/12/24 03:21:29;;;;;;;25.07;16.70;;;;;;;7.12;70.03;94460.72;5132260;27;20249;-45
2022/12/24 03:23:56;;;;;;;25.23;16.97;;;;;;;7.13;70.34;94468.25;5132944;27;20208;-47
2022/12/24 03:26:25;;;;;;;27.93;18.23;;;;;;;7.12;70.16;94461.53;5132688;27;20207;-46
2022/12/24 03:28:52;;;;;;;23.97;15.70;;;;;;;7.11;70.05;94467.56;5132386;27;20189;-47
2022/12/24 03:31:19;;;;;;;26.97;17.27;;;;;;;7.10;70.11;94460.06;5132520;27;20188;-45
2022/12/24 03:33:48;;;;;;;29.00;17.27;;;;;;;7.07;70.27;94466.19;5132541;27;20188;-46
2022/12/24 03:36:15;;;;;;;26.93;17.80;;;;;;;7.06;70.10;94461.22;5131653;27;20189;-47
2022/12/24 03:38:42;;;;;;;22.37;16.27;;;;;;;7.04;70.26;94466.44;5132613;27;20224;-46
2022/12/24 03:41:09;;;;;;;24.97;16.10;;;;;;;7.05;70.08;94468.06;5131628;27;20180;-45
2022/12/24 03:43:36;;;;;;;24.83;17.10;;;;;;;7.02;70.23;94470.84;5132076;27;20634;-46
2022/12/24 03:46:06;;;;;;;22.63;16.17;;;;;;;7.01;70.06;94469.22;5132500;27;20620;-46
2022/12/24 03:48:34;;;;;;;28.50;17.03;;;;;;;6.97;70.08;94465.31;5132542;27;20195;-45
2022/12/24 03:51:03;;;;;;;24.10;16.37;;;;;;;6.99;70.29;94476.16;5131790;27;20192;-48
2022/12/24 03:53:30;;;;;;;21.30;16.13;;;;;;;6.97;70.20;94466.13;5132331;27;20279;-46
2022/12/24 03:55:57;;;;;;;25.63;18.20;;;;;;;6.99;70.13;94468.53;5131876;27;20199;-46
2022/12/24 03:58:23;;;;;;;22.93;16.00;;;;;;;6.97;70.16;94472.94;5131883;27;20196;-46
2022/12/24 04:00:50;;;;;;;23.70;16.40;;;;;;;6.97;70.13;94478.03;5131759;27;20336;-47
2022/12/24 04:03:17;;;;;;;24.57;15.90;;;;;;;6.96;70.19;94479.75;5132023;27;20220;-45
2022/12/24 04:05:44;;;;;;;20.03;14.73;;;;;;;6.96;70.20;94481.50;5132286;27;20254;-43
2022/12/24 04:08:13;;;;;;;23.77;15.63;;;;;;;6.92;70.18;94488.56;5132665;27;20233;-44
2022/12/24 04:10:39;;;;;;;22.27;14.97;;;;;;;6.94;70.07;94494.31;5131699;27;20275;-46
2022/12/24 04:13:06;;;;;;;23.27;14.97;;;;;;;6.94;70.08;94494.31;5131142;27;20196;-46
2022/12/24 04:15:33;;;;;;;23.07;15.43;;;;;;;6.91;70.10;94497.13;5131837;27;20207;-48
2022/12/24 04:18:00;;;;;;;22.07;15.57;;;;;;;6.94;70.13;94498.59;5132292;27;20207;-47
2022/12/24 04:20:26;;;;;;;23.90;14.97;;;;;;;6.93;69.97;94499.53;5132484;27;20196;-46
2022/12/24 04:22:54;;;;;;;26.47;16.07;;;;;;;6.72;70.01;94464.69;5132504;27;20246;-47
2022/12/24 04:25:22;;;;;;;21.80;14.97;;;;;;;6.74;69.87;94467.13;5132599;27;20192;-47
2022/12/24 04:27:48;;;;;;;22.93;16.30;;;;;;;6.91;70.05;94502.19;5131984;27;20184;-48
2022/12/24 04:30:15;;;;;;;23.40;15.80;;;;;;;6.91;70.12;94498.81;5132241;27;20188;-46
2022/12/24 04:32:42;;;;;;;19.77;14.97;;;;;;;6.92;70.15;94506.34;5131189;27;20192;-46
2022/12/24 04:35:09;;;;;;;21.07;14.83;;;;;;;6.92;70.17;94508.09;5131342;27;20192;-46
2022/12/24 04:37:36;;;;;;;22.30;14.37;;;;;;;6.92;70.01;94513.97;5131361;27;20221;-45
2022/12/24 04:40:03;;;;;;;22.17;14.57;;;;;;;6.92;70.02;94521.59;5131376;27;20318;-48
2022/12/24 04:42:31;;;;;;;17.37;13.43;;;;;;;6.92;70.18;94519.06;5131287;27;20765;-46
2022/12/24 04:44:58;;;;;;;22.73;14.40;;;;;;;6.93;70.00;94519.88;5130282;27;20223;-46
2022/12/24 04:47:25;;;;;;;22.00;14.50;;;;;;;6.94;70.00;94511.31;5131077;27;20185;-46
2022/12/24 04:49:52;;;;;;;24.27;14.70;;;;;;;6.94;70.19;94514.66;5130770;27;20188;-47
2022/12/24 04:52:18;;;;;;;22.93;14.40;;;;;;;6.94;70.04;94503.69;5130835;27;20207;-47
2022/12/24 04:54:45;;;;;;;25.27;14.43;;;;;;;6.95;70.05;94510.38;5130006;27;20252;-47
2022/12/24 04:57:12;;;;;;;22.80;14.70;;;;;;;6.94;70.05;94499.41;5130695;27;20279;-46
2022/12/24 04:59:40;;;;;;;19.40;13.90;;;;;;;6.95;70.12;94497.66;5130591;27;20188;-47
2022/12/24 05:02:07;;;;;;;21.10;14.17;;;;;;;6.95;69.97;94501.03;5130744;27;20188;-45
2022/12/24 05:04:34;;;;;;;21.33;13.93;;;;;;;6.94;69.82;94488.41;5129415;27;20228;-46
2022/12/24 05:07:00;;;;;;;20.57;14.37;;;;;;;6.95;70.01;94487.50;5130261;27;20193;-46
2022/12/24 05:09:27;;;;;;;20.07;13.60;;;;;;;6.94;69.98;94491.78;5130091;27;20214;-46
2022/12/24 05:11:54;;;;;;;21.53;14.40;;;;;;;6.91;70.31;94486.13;5129904;27;20576;-45
2022/12/24 05:14:21;;;;;;;16.90;12.17;;;;;;;6.93;70.17;94487.63;5130476;27;20191;-48
2022/12/24 05:16:49;;;;;;;16.90;13.17;;;;;;;6.92;70.19;94482.66;5129973;27;20188;-47
2022/12/24 05:19:16;;;;;;;19.00;13.10;;;;;;;6.90;70.27;94464.16;5130046;27;20295;-47
2022/12/24 05:21:42;;;;;;;19.97;13.50;;;;;;;6.97;70.22;94480.56;5130505;27;20192;-46
2022/12/24 05:26:57;;;;;;;19.17;13.17;;;;;;;6.97;70.33;94481.38;5130125;27;20191;-45
2022/12/24 05:29:24;;;;;;;20.63;12.83;;;;;;;7.00;70.35;94495.59;5130753;27;20183;-46
2022/12/24 05:31:52;;;;;;;19.30;12.70;;;;;;;7.00;70.34;94488.75;5130039;27;20188;-46
2022/12/24 05:34:19;;;;;;;22.73;13.47;;;;;;;7.03;70.53;94495.31;5130066;27;20200;-46
2022/12/24 05:36:46;;;;;;;18.60;13.33;;;;;;;7.04;70.65;94497.75;5129416;27;20659;-47
2022/12/24 05:39:15;;;;;;;19.47;13.03;;;;;;;7.07;70.40;94498.44;5129466;27;20223;-46
2022/12/24 05:41:42;;;;;;;17.07;11.97;;;;;;;7.08;70.37;94489.88;5129495;27;20620;-46
2022/12/24 05:44:09;;;;;;;19.33;12.67;;;;;;;6.68;70.22;94422.66;5129943;28;20220;-45
2022/12/24 05:46:36;;;;;;;16.73;12.57;;;;;;;7.13;70.19;94486.06;5129685;28;20189;-46
2022/12/24 05:49:04;;;;;;;19.37;13.03;;;;;;;7.04;70.16;94472.34;5129728;28;20184;-47
2022/12/24 05:51:30;;;;;;;18.23;12.67;;;;;;;7.16;70.11;94462.91;5129890;28;20188;-48
2022/12/24 05:53:57;;;;;;;23.70;13.37;;;;;;;7.25;69.90;94461.38;5130030;28;20200;-48
2022/12/24 05:56:25;;;;;;;17.40;12.70;;;;;;;7.14;69.90;94446.97;5129809;28;20188;-47
2022/12/24 05:58:53;;;;;;;19.33;13.33;;;;;;;7.30;69.83;94482.16;5129872;28;20308;-45
2022/12/24 06:01:21;;;;;;;20.23;13.10;;;;;;;7.33;69.84;94488.72;5129749;28;20180;-44
2022/12/24 06:03:49;;;;;;;17.27;12.67;;;;;;;7.36;69.90;94491.84;5129913;28;20659;-45
2022/12/24 06:06:19;;;;;;;17.27;12.47;;;;;;;7.39;69.75;94496.69;5131067;28;20252;-46
2022/12/24 06:08:47;;;;;;;20.23;13.77;;;;;;;7.43;69.63;94492.16;5132163;28;20622;-47
2022/12/24 06:11:16;;;;;;;21.73;14.37;;;;;;;7.45;69.52;94487.75;5132724;28;20185;-48
2022/12/24 06:13:44;;;;;;;19.23;13.60;;;;;;;7.45;69.43;94487.75;5131825;28;20212;-46
2022/12/24 06:16:12;;;;;;;21.53;15.20;;;;;;;7.52;69.35;94496.50;5132353;28;20208;-46
2022/12/24 06:18:39;;;;;;;21.93;15.33;;;;;;;7.55;69.28;94503.88;5131412;28;20203;-46
2022/12/24 06:21:07;;;;;;;22.53;14.73;;;;;;;7.58;69.38;94502.84;5129539;27;20188;-47
2022/12/24 06:23:38;;;;;;;23.27;15.10;;;;;;;7.62;69.29;94502.47;5133159;27;20192;-47
2022/12/24 06:26:06;;;;;;;21.47;15.03;;;;;;;7.69;69.12;94501.03;5133779;27;20201;-46
2022/12/24 06:28:34;;;;;;;21.73;14.60;;;;;;;7.92;68.44;94504.25;5133094;27;20571;-47
2022/12/24 06:31:02;;;;;;;20.60;15.27;;;;;;;8.21;68.04;94513.78;5133538;27;20211;-46
2022/12/24 06:33:29;;;;;;;23.57;14.80;;;;;;;8.57;67.76;94511.63;5133397;27;20177;-47
2022/12/24 06:35:56;;;;;;;21.73;15.33;;;;;;;8.87;67.66;94505.66;5133104;27;20187;-45
2022/12/24 06:38:23;;;;;;;17.83;9.87;;;;;;;9.74;100.00;94516.69;5132392;27;20975;-45
2022/12/24 06:40:51;;;;;;;24.40;11.30;;;;;;;10.98;100.00;94514.75;5133134;27;20290;-47
2022/12/24 06:43:18;;;;;;;15.90;12.27;;;;;;;11.94;100.00;94522.63;5132683;27;20181;-46
2022/12/24 06:45:46;;;;;;;17.13;10.53;;;;;;;12.41;100.00;94528.19;5133356;27;20207;-46
2022/12/24 06:48:14;;;;;;;25.17;12.83;;;;;;;12.49;100.00;94522.31;5133452;27;20196;-47
2022/12/24 06:50:41;;;;;;;18.47;11.90;;;;;;;12.43;96.79;94523.69;5135265;27;20207;-47
2022/12/24 06:53:08;;;;;;;16.40;10.80;;;;;;;12.16;93.57;94500.81;5133178;27;20249;-46
2022/12/24 06:55:35;;;;;;;17.30;11.00;;;;;;;12.27;90.75;94532.13;5132889;27;20188;-46
2022/12/24 06:58:03;;;;;;;16.07;11.97;;;;;;;12.34;89.52;94529.75;5132620;27;20183;-46
2022/12/24 07:00:30;;;;;;;19.57;12.50;;;;;;;12.46;86.73;94533.66;5132022;27;20683;-49
2022/12/24 07:02:57;;;;;;;15.00;11.50;;;;;;;12.70;83.03;94529.63;5133069;27;20622;-46
2022/12/24 07:05:24;;;;;;;15.63;11.87;;;;;;;13.00;79.82;94525.72;5131741;27;20219;-46
2022/12/24 07:07:50;;;;;;;17.70;11.90;;;;;;;13.38;77.93;94528.69;5132158;27;20671;-47
2022/12/24 07:10:19;;;;;;;16.70;11.43;;;;;;;13.79;77.33;94530.31;5121972;27;20584;-45
2022/12/24 07:12:46;;;;;;;25.50;12.00;;;;;;;14.13;76.93;94519.03;5112184;28;20193;-49
2022/12/24 07:15:16;;;;;;;20.27;12.43;;;;;;;14.74;76.07;94530.47;5132552;27;20195;-47
2022/12/24 07:17:43;;;;;;;20.10;12.63;;;;;;;15.18;75.38;94542.00;5153778;27;20244;-46
2022/12/24 07:20:13;;;;;;;19.07;12.10;;;;;;;15.40;74.34;94532.69;5153077;27;20191;-48
2022/12/24 07:22:40;;;;;;;22.17;12.97;;;;;;;15.44;73.84;94531.38;5153258;27;20199;-48
2022/12/24 07:25:07;;;;;;;17.37;11.03;;;;;;;15.61;74.79;94530.31;5152863;27;20232;-48
2022/12/24 07:27:34;;;;;;;16.00;11.00;;;;;;;15.92;73.23;94532.03;5153281;27;20236;-47
2022/12/24 07:30:01;;;;;;;16.60;11.87;;;;;;;16.22;71.81;94525.94;5153098;27;20659;-46
2022/12/24 07:32:29;;;;;;;24.80;12.00;;;;;;;16.54;70.72;94542.88;5154482;27;20175;-47
2022/12/24 07:34:56;;;;;;;18.27;11.03;;;;;;;16.82;69.95;94537.09;5153941;27;20202;-48
2022/12/24 07:37:22;;;;;;;16.17;11.37;;;;;;;17.09;69.24;94534.84;5154441;27;20187;-50
2022/12/24 07:39:49;;;;;;;13.50;10.63;;;;;;;17.33;68.31;94529.34;5153874;27;20625;-46
2022/12/24 07:42:16;;;;;;;20.03;11.27;;;;;;;17.58;67.52;94544.53;5153343;27;20732;-47
2022/12/24 07:44:43;;;;;;;13.13;9.90;;;;;;;17.74;67.04;94539.91;5153857;27;20310;-49
2022/12/24 07:47:10;;;;;;;14.33;10.93;;;;;;;17.96;66.42;94539.91;5143613;27;20253;-48
2022/12/24 07:49:38;;;;;;;17.07;11.47;;;;;;;18.15;65.60;94547.03;5130389;27;20177;-48
2022/12/24 07:52:05;;;;;;;17.10;12.83;;;;;;;18.30;64.88;94549.53;5129188;27;20196;-48
2022/12/24 07:54:32;;;;;;;17.43;12.40;;;;;;;18.42;64.11;94554.97;5130777;27;20192;-48
2022/12/24 07:56:58;;;;;;;20.03;12.47;;;;;;;18.56;63.21;94554.06;5140787;27;20270;-47
2022/12/24 07:59:25;;;;;;;23.10;12.87;;;;;;;18.71;62.21;94552.22;5150100;27;20401;-46
2022/12/24 08:01:52;;;;;;;20.37;15.50;;;;;;;18.97;61.50;94563.69;5136281;27;20188;-47
2022/12/24 08:04:19;;;;;;;19.10;13.77;;;;;;;19.13;61.17;94565.16;5129596;27;20204;-46
2022/12/24 08:06:47;;;;;;;26.47;14.17;;;;;;;19.28;60.92;94565.81;5129087;27;20188;-46
2022/12/24 08:09:14;;;;;;;20.87;15.20;;;;;;;19.39;60.37;94572.25;5128741;27;20188;-48
2022/12/24 08:11:41;;;;;;;19.33;13.87;;;;;;;19.48;60.38;94579.66;5128419;27;20197;-48
2022/12/24 08:14:07;;;;;;;19.00;13.93;;;;;;;19.57;60.13;94582.06;5128494;27;20576;-50
2022/12/24 08:16:34;;;;;;;24.87;14.53;;;;;;;19.66;60.23;94581.72;5128921;27;20897;-49
2022/12/24 08:19:01;;;;;;;19.90;14.20;;;;;;;19.76;59.93;94583.94;5128579;27;20207;-48
2022/12/24 08:21:28;;;;;;;18.50;14.57;;;;;;;19.82;59.37;94577.97;5129005;27;20192;-49
2022/12/24 08:23:56;;;;;;;20.10;14.87;;;;;;;19.89;59.35;94572.78;5128598;27;20524;-48
2022/12/24 08:26:23;;;;;;;19.17;14.97;;;;;;;19.92;59.25;94562.00;5128585;27;20205;-52
2022/12/24 08:28:49;;;;;;;17.43;13.73;;;;;;;20.03;58.94;94556.19;5128867;27;20188;-47
2022/12/24 08:31:16;;;;;;;23.50;15.30;;;;;;;20.05;59.20;94555.03;5128591;27;20192;-46
2022/12/24 08:33:43;;;;;;;22.67;15.90;;;;;;;20.13;59.39;94555.84;5128479;27;20245;-51
2022/12/24 08:36:10;;;;;;;23.90;15.30;;;;;;;20.19;59.40;94549.81;5128379;27;20267;-49
2022/12/24 08:38:36;;;;;;;21.90;15.10;;;;;;;20.22;59.47;94552.81;5128110;27;20204;-50
2022/12/24 08:41:05;;;;;;;25.30;15.50;;;;;;;20.30;60.03;94551.81;5128391;27;20184;-47
2022/12/24 08:43:32;;;;;;;23.13;14.27;;;;;;;20.42;60.23;94557.19;5128411;27;20653;-50
2022/12/24 08:46:02;;;;;;;23.87;15.67;;;;;;;20.52;59.66;94562.81;5127628;27;20261;-50
2022/12/24 08:48:29;;;;;;;19.80;14.77;;;;;;;20.55;59.42;94554.59;5128053;27;20279;-48
2022/12/24 08:50:56;;;;;;;22.50;15.30;;;;;;;20.53;58.63;94567.81;5128105;27;20188;-49
2022/12/24 08:53:22;;;;;;;20.95;15.57;;;;;;;20.46;58.29;94563.59;5128309;27;20264;-46
2022/12/24 08:55:49;;;;;;;24.85;16.17;;;;;;;20.50;57.78;94576.00;5128271;27;20200;-46
2022/12/24 08:58:17;;;;;;;24.60;16.17;;;;;;;20.46;57.66;94576.56;5127968;27;20195;-47
2022/12/24 09:00:44;;;;;;;24.90;16.00;;;;;;;20.48;57.61;94590.22;5127584;27;20617;-46
2022/12/24 09:03:14;;;;;;;24.40;16.00;;;;;;;20.44;57.64;94574.19;5128160;27;20183;-48
2022/12/24 09:05:41;;;;;;;24.47;17.00;;;;;;;20.42;57.64;94572.78;5127164;27;20292;-48
2022/12/24 09:08:08;;;;;;;28.75;17.77;;;;;;;20.35;57.76;94564.22;5127513;27;20244;-48
2022/12/24 09:10:34;;;;;;;24.60;17.63;;;;;;;20.16;57.52;94564.00;5127617;27;20192;-50
2022/12/24 09:13:01;;;;;;;24.40;19.27;;;;;;;19.90;57.29;94561.38;5128389;27;20581;-47
2022/12/24 09:15:29;;;;;;;22.23;17.50;;;;;;;19.61;57.17;94565.94;5127606;27;20188;-47
2022/12/24 09:17:56;;;;;;;22.90;18.60;;;;;;;19.28;57.15;94565.81;5128489;27;20184;-47
2022/12/24 09:20:23;;;;;;;28.20;19.40;;;;;;;19.07;57.35;94564.13;5127796;27;20192;-48
2022/12/24 09:22:50;;;;;;;24.13;19.73;;;;;;;18.78;57.52;94560.81;5127253;27;20200;-47
2022/12/24 09:25:17;;;;;;;27.00;20.13;;;;;;;18.56;57.58;94549.69;5128109;27;20304;-47
2022/12/24 09:27:44;;;;;;;26.90;20.30;;;;;;;18.34;57.64;94553.34;5128147;27;20191;-48
2022/12/24 09:30:12;;;;;;;38.17;17.37;;;;;;;18.15;61.14;94544.44;5127260;27;20572;-50
2022/12/24 09:32:40;;;;;;;23.10;15.00;;;;;;;18.44;68.05;94555.59;5127718;27;20196;-49
2022/12/24 09:35:07;;;;;;;31.23;13.93;;;;;;;18.71;67.40;94554.00;5128074;27;20192;-48
2022/12/24 09:37:34;;;;;;;33.07;16.73;;;;;;;18.95;66.55;94553.50;5127397;27;20200;-47
2022/12/24 09:40:00;;;;;;;37.83;15.07;;;;;;;19.14;66.10;94559.78;5127667;27;20223;-45
2022/12/24 09:42:38;;;;;;;32.63;15.03;;;;;;;19.31;65.59;94544.69;5127229;27;20180;-46
2022/12/24 09:45:14;;;;;;;26.30;14.17;;;;;;;19.48;64.97;94543.34;5127515;28;20214;-47
2022/12/24 09:47:46;;;;;;;24.50;13.40;;;;;;;19.65;64.58;94535.22;5127501;28;20184;-44
2022/12/24 09:50:29;;;;;;;27.67;14.90;;;;;;;19.80;63.96;94543.63;5128901;28;20187;-49
2022/12/24 09:52:58;;;;;;;26.73;16.47;;;;;;;19.82;63.38;94533.03;5128172;28;20260;-49
2022/12/24 09:55:41;;;;;;;28.50;15.90;;;;;;;19.68;62.62;94540.78;5129576;27;20204;-50
2022/12/24 09:58:19;;;;;;;22.03;15.67;;;;;;;19.39;61.68;94533.34;5136946;27;20200;-53
2022/12/24 10:00:46;;;;;;;28.20;17.17;;;;;;;19.22;61.39;94544.06;5137382;27;20202;-54
2022/12/24 10:03:17;;;;;;;35.80;17.23;;;;;;;18.99;61.04;94528.81;5132906;27;20176;-51
2022/12/24 10:05:51;;;;;;;28.30;18.20;;;;;;;18.75;60.97;94540.47;5130999;27;20272;-48
2022/12/24 10:08:27;;;;;;;27.60;18.60;;;;;;;18.55;60.61;94555.06;5135719;27;20274;-48
2022/12/24 10:10:56;;;;;;;35.87;21.13;;;;;;;18.29;60.61;94547.94;5133580;27;20241;-50
2022/12/24 10:13:39;;;;;;;31.57;19.43;;;;;;;18.09;60.47;94544.38;5134817;27;20192;-48
2022/12/24 10:16:15;;;;;;;29.53;20.47;;;;;;;17.86;60.39;94537.63;5133435;27;20188;-48
2022/12/24 10:18:52;;;;;;;40.70;23.57;;;;;;;17.67;60.43;94525.31;5134254;27;20196;-51
2022/12/24 10:21:29;;;;;;;36.23;23.73;;;;;;;17.55;60.33;94523.22;5133165;27;20200;-47
2022/12/24 10:24:05;;;;;;;34.40;24.80;;;;;;;17.41;60.27;94518.09;5133620;27;20191;-48
2022/12/24 10:26:37;;;;;;;36.33;25.80;;;;;;;17.39;60.22;94530.41;5133768;27;20330;-50
2022/12/24 10:29:13;;;;;;;37.83;26.97;;;;;;;17.34;60.09;94530.16;5135758;27;20180;-48
2022/12/24 10:31:45;;;;;;;41.50;28.77;;;;;;;17.30;59.86;94537.47;5135071;27;20176;-49
2022/12/24 10:34:19;;;;;;;41.93;29.20;;;;;;;17.26;59.64;94543.97;5132982;27;20211;-47
2022/12/24 10:36:46;;;;;;;45.20;29.47;;;;;;;17.19;59.51;94536.16;5133494;27;20226;-47
2022/12/24 10:39:18;;;;;;;49.50;31.90;;;;;;;17.13;59.42;94529.13;5132723;27;20228;-49
2022/12/24 10:41:46;;;;;;;47.27;30.60;;;;;;;17.03;59.41;94511.34;5133564;27;20198;-49
2022/12/24 10:44:17;;;;;;;44.40;32.13;;;;;;;17.01;59.22;94521.06;5133059;27;20184;-49
2022/12/24 10:46:46;;;;;;;46.80;32.90;;;;;;;16.93;59.20;94525.53;5133579;27;20637;-48
2022/12/24 10:49:17;;;;;;;49.70;34.27;;;;;;;16.83;59.38;94519.81;5133237;27;20181;-47
2022/12/24 10:51:50;;;;;;;48.30;34.43;;;;;;;16.76;59.25;94522.34;5133196;27;20201;-49
2022/12/24 10:54:19;;;;;;;46.77;33.53;;;;;;;16.69;59.27;94524.81;5132999;27;20185;-48
2022/12/24 10:56:51;;;;;;;50.17;34.27;;;;;;;16.43;59.34;94496.06;5133225;27;20191;-47
2022/12/24 10:59:26;;;;;;;45.93;33.00;;;;;;;16.49;59.26;94521.16;5133078;27;20241;-48
2022/12/24 11:01:54;;;;;;;50.23;34.37;;;;;;;16.26;59.34;94506.56;5133329;27;20180;-49
2022/12/24 11:04:24;;;;;;;48.47;35.27;;;;;;;16.26;59.36;94531.56;5133128;27;20180;-46
2022/12/24 11:06:56;;;;;;;49.90;35.20;;;;;;;16.14;59.79;94531.19;5132347;27;20224;-46
2022/12/24 11:09:25;;;;;;;50.37;35.10;;;;;;;16.02;59.59;94528.25;5132246;27;20192;-49
2022/12/24 11:11:53;;;;;;;53.03;38.10;;;;;;;15.76;59.67;94510.56;5132662;27;20192;-48
2022/12/24 11:14:21;;;;;;;48.43;36.37;;;;;;;15.86;59.69;94530.16;5132780;27;20207;-47
2022/12/24 11:16:52;;;;;;;48.07;35.70;;;;;;;15.79;59.65;94520.50;5132738;27;20185;-48
2022/12/24 11:19:26;;;;;;;53.27;37.20;;;;;;;15.64;59.53;94495.66;5132379;27;20327;-47
2022/12/24 11:22:01;;;;;;;51.30;36.60;;;;;;;15.76;59.40;94517.50;5132796;27;20196;-48
2022/12/24 11:24:30;;;;;;;53.27;37.93;;;;;;;15.76;59.56;94517.50;5132493;27;20184;-49
2022/12/24 11:27:29;;;;;;;53.17;37.10;;;;;;;15.77;59.30;94517.31;5132726;27;20257;-47
2022/12/24 11:30:21;;;;;;;54.27;37.93;;;;;;;15.80;59.09;94522.16;5132759;27;20210;-46
2022/12/24 11:32:50;;;;;;;50.33;36.33;;;;;;;15.85;58.96;94534.50;5133367;27;20231;-47
2022/12/24 11:35:21;;;;;;;58.50;37.83;;;;;;;15.93;58.75;94534.44;5133334;27;20193;-47
2022/12/24 11:37:48;;;;;;;52.50;39.07;;;;;;;16.02;58.43;94530.03;5132034;27;20219;-48